sensor_id;sensor_type;location;lat;lon;timestamp;P1;durP1;ratioP1;P2;durP2;ratioP2
37559;SDS011;23398;50.928;7.084;2023-04-25T00:01:56;5.20;;;2.60;;
37559;SDS011;23398;50.928;7.084;2023-04-25T00:04:21;5.20;;;3.00;;
37559;SDS011;23398;50.928;7.084;2023-04-25T00:06:47;6.45;;;2.83;;
37559;SDS011;23398;50.928;7.084;2023-04-25T00:09:13;5.25;;;2.45;;
37559;SDS011;23398;50.928;7.084;2023-04-25T00:11:39;7.03;;;2.72;;
37559;SDS011;23398;50.928;7.084;2023-04-25T00:14:05;6.22;;;2.63;;
37559;SDS011;23398;50.928;7.084;2023-04-25T00:16:31;4.72;;;2.55;;
37559;SDS011;23398;50.928;7.084;2023-04-25T00:18:59;6.13;;;2.80;;
37559;SDS011;23398;50.928;7.084;2023-04-25T00:21:25;4.18;;;2.38;;
37559;SDS011;23398;50.928;7.084;2023-04-25T00:23:52;6.30;;;2.75;;
37559;SDS011;23398;50.928;7.084;2023-04-25T00:26:17;5.20;;;2.60;;
37559;SDS011;23398;50.928;7.084;2023-04-25T00:28:43;5.63;;;2.38;;
37559;SDS011;23398;50.928;7.084;2023-04-25T00:31:08;5.75;;;2.53;;
37559;SDS011;23398;50.928;7.084;2023-04-25T00:33:34;5.80;;;2.42;;
37559;SDS011;23398;50.928;7.084;2023-04-25T00:36:00;5.32;;;2.95;;
37559;SDS011;23398;50.928;7.084;2023-04-25T00:38:26;7.15;;;2.60;;
37559;SDS011;23398;50.928;7.084;2023-04-25T00:40:51;7.75;;;2.65;;
37559;SDS011;23398;50.928;7.084;2023-04-25T00:43:17;6.25;;;2.53;;
37559;SDS011;23398;50.928;7.084;2023-04-25T00:45:43;5.32;;;2.67;;
37559;SDS011;23398;50.928;7.084;2023-04-25T00:48:11;5.05;;;2.63;;
37559;SDS011;23398;50.928;7.084;2023-04-25T00:50:39;6.10;;;2.80;;
37559;SDS011;23398;50.928;7.084;2023-04-25T00:53:05;6.13;;;2.88;;
37559;SDS011;23398;50.928;7.084;2023-04-25T00:55:31;5.60;;;2.78;;
37559;SDS011;23398;50.928;7.084;2023-04-25T00:57:59;4.72;;;2.50;;
37559;SDS011;23398;50.928;7.084;2023-04-25T01:00:25;6.28;;;2.60;;
37559;SDS011;23398;50.928;7.084;2023-04-25T01:02:51;5.20;;;2.50;;
37559;SDS011;23398;50.928;7.084;2023-04-25T01:05:17;5.78;;;2.75;;
37559;SDS011;23398;50.928;7.084;2023-04-25T01:07:43;5.60;;;2.40;;
37559;SDS011;23398;50.928;7.084;2023-04-25T01:10:10;4.18;;;2.30;;
37559;SDS011;23398;50.928;7.084;2023-04-25T01:12:35;6.47;;;2.50;;
37559;SDS011;23398;50.928;7.084;2023-04-25T01:15:01;5.88;;;2.60;;
37559;SDS011;23398;50.928;7.084;2023-04-25T01:17:27;6.15;;;2.40;;
37559;SDS011;23398;50.928;7.084;2023-04-25T01:19:54;5.80;;;2.75;;
37559;SDS011;23398;50.928;7.084;2023-04-25T01:22:20;5.63;;;2.80;;
37559;SDS011;23398;50.928;7.084;2023-04-25T01:24:46;7.60;;;2.70;;
37559;SDS011;23398;50.928;7.084;2023-04-25T01:27:12;5.15;;;2.17;;
37559;SDS011;23398;50.928;7.084;2023-04-25T01:29:37;6.72;;;2.70;;
37559;SDS011;23398;50.928;7.084;2023-04-25T01:32:04;12.15;;;2.75;;
37559;SDS011;23398;50.928;7.084;2023-04-25T01:34:30;6.90;;;2.83;;
37559;SDS011;23398;50.928;7.084;2023-04-25T01:36:56;6.32;;;2.55;;
37559;SDS011;23398;50.928;7.084;2023-04-25T01:39:24;5.85;;;2.72;;
37559;SDS011;23398;50.928;7.084;2023-04-25T01:41:50;8.93;;;2.70;;
37559;SDS011;23398;50.928;7.084;2023-04-25T01:44:16;6.32;;;3.05;;
37559;SDS011;23398;50.928;7.084;2023-04-25T01:46:41;8.25;;;2.80;;
37559;SDS011;23398;50.928;7.084;2023-04-25T01:49:07;3.72;;;2.63;;
37559;SDS011;23398;50.928;7.084;2023-04-25T01:51:32;6.47;;;2.60;;
37559;SDS011;23398;50.928;7.084;2023-04-25T01:53:58;8.20;;;3.08;;
37559;SDS011;23398;50.928;7.084;2023-04-25T01:56:24;5.93;;;2.72;;
37559;SDS011;23398;50.928;7.084;2023-04-25T01:58:50;9.40;;;2.97;;
37559;SDS011;23398;50.928;7.084;2023-04-25T02:01:16;7.10;;;3.10;;
37559;SDS011;23398;50.928;7.084;2023-04-25T02:03:42;7.57;;;2.80;;
37559;SDS011;23398;50.928;7.084;2023-04-25T02:06:08;6.55;;;2.60;;
37559;SDS011;23398;50.928;7.084;2023-04-25T02:08:33;7.30;;;3.03;;
37559;SDS011;23398;50.928;7.084;2023-04-25T02:10:59;6.13;;;2.78;;
37559;SDS011;23398;50.928;7.084;2023-04-25T02:13:24;5.38;;;2.60;;
37559;SDS011;23398;50.928;7.084;2023-04-25T02:15:50;6.72;;;2.85;;
37559;SDS011;23398;50.928;7.084;2023-04-25T02:18:15;5.32;;;2.67;;
37559;SDS011;23398;50.928;7.084;2023-04-25T02:20:41;4.50;;;2.58;;
37559;SDS011;23398;50.928;7.084;2023-04-25T02:23:08;8.60;;;2.50;;
37559;SDS011;23398;50.928;7.084;2023-04-25T02:25:33;7.57;;;2.80;;
37559;SDS011;23398;50.928;7.084;2023-04-25T02:27:59;5.50;;;2.95;;
37559;SDS011;23398;50.928;7.084;2023-04-25T02:30:24;4.78;;;2.58;;
37559;SDS011;23398;50.928;7.084;2023-04-25T02:32:50;8.35;;;2.78;;
37559;SDS011;23398;50.928;7.084;2023-04-25T02:35:16;6.28;;;2.80;;
37559;SDS011;23398;50.928;7.084;2023-04-25T02:37:41;6.82;;;2.65;;
37559;SDS011;23398;50.928;7.084;2023-04-25T02:40:07;5.70;;;2.58;;
37559;SDS011;23398;50.928;7.084;2023-04-25T02:42:33;5.50;;;3.05;;
37559;SDS011;23398;50.928;7.084;2023-04-25T02:44:59;5.57;;;2.55;;
37559;SDS011;23398;50.928;7.084;2023-04-25T02:47:25;3.78;;;2.47;;
37559;SDS011;23398;50.928;7.084;2023-04-25T02:49:51;7.07;;;2.55;;
37559;SDS011;23398;50.928;7.084;2023-04-25T02:52:16;7.70;;;2.78;;
37559;SDS011;23398;50.928;7.084;2023-04-25T02:54:42;4.97;;;2.35;;
37559;SDS011;23398;50.928;7.084;2023-04-25T02:57:07;3.78;;;2.35;;
37559;SDS011;23398;50.928;7.084;2023-04-25T02:59:33;5.22;;;2.50;;
37559;SDS011;23398;50.928;7.084;2023-04-25T03:01:59;4.28;;;2.38;;
37559;SDS011;23398;50.928;7.084;2023-04-25T03:04:26;6.22;;;2.53;;
37559;SDS011;23398;50.928;7.084;2023-04-25T03:06:51;5.72;;;2.85;;
37559;SDS011;23398;50.928;7.084;2023-04-25T03:09:17;6.93;;;2.75;;
37559;SDS011;23398;50.928;7.084;2023-04-25T03:11:44;5.75;;;2.67;;
37559;SDS011;23398;50.928;7.084;2023-04-25T03:14:10;7.38;;;2.53;;
37559;SDS011;23398;50.928;7.084;2023-04-25T03:16:35;4.03;;;2.30;;
37559;SDS011;23398;50.928;7.084;2023-04-25T03:19:02;8.50;;;2.88;;
37559;SDS011;23398;50.928;7.084;2023-04-25T03:21:27;4.10;;;2.30;;
37559;SDS011;23398;50.928;7.084;2023-04-25T03:23:53;6.60;;;2.40;;
37559;SDS011;23398;50.928;7.084;2023-04-25T03:26:19;4.70;;;2.30;;
37559;SDS011;23398;50.928;7.084;2023-04-25T03:28:45;4.53;;;2.22;;
37559;SDS011;23398;50.928;7.084;2023-04-25T03:31:11;4.32;;;2.28;;
37559;SDS011;23398;50.928;7.084;2023-04-25T03:33:36;3.30;;;2.13;;
37559;SDS011;23398;50.928;7.084;2023-04-25T03:36:02;3.97;;;2.15;;
37559;SDS011;23398;50.928;7.084;2023-04-25T03:38:28;4.97;;;2.10;;
37559;SDS011;23398;50.928;7.084;2023-04-25T03:40:53;6.25;;;2.50;;
37559;SDS011;23398;50.928;7.084;2023-04-25T03:43:21;6.30;;;3.47;;
37559;SDS011;23398;50.928;7.084;2023-04-25T03:45:46;6.78;;;3.80;;
37559;SDS011;23398;50.928;7.084;2023-04-25T03:48:12;5.68;;;3.20;;
37559;SDS011;23398;50.928;7.084;2023-04-25T03:50:37;3.05;;;2.30;;
37559;SDS011;23398;50.928;7.084;2023-04-25T03:53:03;5.38;;;3.08;;
37559;SDS011;23398;50.928;7.084;2023-04-25T03:55:29;3.50;;;2.25;;
37559;SDS011;23398;50.928;7.084;2023-04-25T03:57:54;3.03;;;2.13;;
37559;SDS011;23398;50.928;7.084;2023-04-25T04:00:20;4.50;;;2.65;;
37559;SDS011;23398;50.928;7.084;2023-04-25T04:02:46;4.63;;;2.40;;
37559;SDS011;23398;50.928;7.084;2023-04-25T04:05:11;3.97;;;2.30;;
37559;SDS011;23398;50.928;7.084;2023-04-25T04:07:37;5.63;;;2.50;;
37559;SDS011;23398;50.928;7.084;2023-04-25T04:10:08;5.88;;;2.80;;
37559;SDS011;23398;50.928;7.084;2023-04-25T04:12:34;4.70;;;2.58;;
37559;SDS011;23398;50.928;7.084;2023-04-25T04:15:01;6.10;;;2.40;;
37559;SDS011;23398;50.928;7.084;2023-04-25T04:17:28;4.20;;;2.28;;
37559;SDS011;23398;50.928;7.084;2023-04-25T04:19:54;5.47;;;2.38;;
37559;SDS011;23398;50.928;7.084;2023-04-25T04:22:20;4.32;;;1.92;;
37559;SDS011;23398;50.928;7.084;2023-04-25T04:24:45;6.88;;;2.40;;
37559;SDS011;23398;50.928;7.084;2023-04-25T04:27:11;7.03;;;2.55;;
37559;SDS011;23398;50.928;7.084;2023-04-25T04:29:37;5.30;;;2.58;;
37559;SDS011;23398;50.928;7.084;2023-04-25T04:32:03;4.90;;;2.65;;
37559;SDS011;23398;50.928;7.084;2023-04-25T04:34:30;3.88;;;2.35;;
37559;SDS011;23398;50.928;7.084;2023-04-25T04:36:56;5.75;;;2.70;;
37559;SDS011;23398;50.928;7.084;2023-04-25T04:39:22;5.57;;;2.78;;
37559;SDS011;23398;50.928;7.084;2023-04-25T04:41:47;7.60;;;3.53;;
37559;SDS011;23398;50.928;7.084;2023-04-25T04:44:13;7.95;;;3.53;;
37559;SDS011;23398;50.928;7.084;2023-04-25T04:46:39;5.90;;;3.85;;
37559;SDS011;23398;50.928;7.084;2023-04-25T04:49:09;5.40;;;3.30;;
37559;SDS011;23398;50.928;7.084;2023-04-25T04:51:36;7.35;;;3.05;;
37559;SDS011;23398;50.928;7.084;2023-04-25T04:54:02;7.10;;;3.50;;
37559;SDS011;23398;50.928;7.084;2023-04-25T04:56:28;8.15;;;2.92;;
37559;SDS011;23398;50.928;7.084;2023-04-25T04:58:56;7.53;;;2.95;;
37559;SDS011;23398;50.928;7.084;2023-04-25T05:01:22;6.65;;;2.85;;
37559;SDS011;23398;50.928;7.084;2023-04-25T05:03:48;6.78;;;3.22;;
37559;SDS011;23398;50.928;7.084;2023-04-25T05:06:16;7.35;;;3.08;;
37559;SDS011;23398;50.928;7.084;2023-04-25T05:08:42;6.82;;;3.28;;
37559;SDS011;23398;50.928;7.084;2023-04-25T05:11:07;7.78;;;3.55;;
37559;SDS011;23398;50.928;7.084;2023-04-25T05:13:33;6.57;;;3.45;;
37559;SDS011;23398;50.928;7.084;2023-04-25T05:15:58;7.93;;;3.33;;
37559;SDS011;23398;50.928;7.084;2023-04-25T05:18:24;6.75;;;3.67;;
37559;SDS011;23398;50.928;7.084;2023-04-25T05:20:50;6.25;;;3.40;;
37559;SDS011;23398;50.928;7.084;2023-04-25T05:23:15;6.88;;;3.38;;
37559;SDS011;23398;50.928;7.084;2023-04-25T05:25:41;6.55;;;3.28;;
37559;SDS011;23398;50.928;7.084;2023-04-25T05:28:07;6.47;;;3.17;;
37559;SDS011;23398;50.928;7.084;2023-04-25T05:30:33;6.88;;;3.42;;
37559;SDS011;23398;50.928;7.084;2023-04-25T05:32:59;6.43;;;3.35;;
37559;SDS011;23398;50.928;7.084;2023-04-25T05:35:25;9.75;;;3.60;;
37559;SDS011;23398;50.928;7.084;2023-04-25T05:37:51;7.95;;;3.67;;
37559;SDS011;23398;50.928;7.084;2023-04-25T05:40:16;6.35;;;3.05;;
37559;SDS011;23398;50.928;7.084;2023-04-25T05:42:42;6.38;;;3.42;;
37559;SDS011;23398;50.928;7.084;2023-04-25T05:45:08;5.45;;;3.25;;
37559;SDS011;23398;50.928;7.084;2023-04-25T05:47:33;8.23;;;3.45;;
37559;SDS011;23398;50.928;7.084;2023-04-25T05:49:59;5.85;;;3.53;;
37559;SDS011;23398;50.928;7.084;2023-04-25T05:52:25;5.72;;;3.25;;
37559;SDS011;23398;50.928;7.084;2023-04-25T05:54:50;8.98;;;4.00;;
37559;SDS011;23398;50.928;7.084;2023-04-25T05:57:22;7.60;;;3.72;;
37559;SDS011;23398;50.928;7.084;2023-04-25T05:59:49;7.60;;;3.10;;
37559;SDS011;23398;50.928;7.084;2023-04-25T06:02:15;7.70;;;3.10;;
37559;SDS011;23398;50.928;7.084;2023-04-25T06:04:41;6.03;;;3.22;;
37559;SDS011;23398;50.928;7.084;2023-04-25T06:07:06;8.82;;;3.30;;
37559;SDS011;23398;50.928;7.084;2023-04-25T06:09:32;8.07;;;3.33;;
37559;SDS011;23398;50.928;7.084;2023-04-25T06:11:59;6.63;;;3.38;;
37559;SDS011;23398;50.928;7.084;2023-04-25T06:14:24;9.57;;;4.38;;
37559;SDS011;23398;50.928;7.084;2023-04-25T06:16:50;10.13;;;4.60;;
37559;SDS011;23398;50.928;7.084;2023-04-25T06:19:15;10.02;;;3.97;;
37559;SDS011;23398;50.928;7.084;2023-04-25T06:21:42;6.90;;;3.83;;
37559;SDS011;23398;50.928;7.084;2023-04-25T06:24:09;6.85;;;3.38;;
37559;SDS011;23398;50.928;7.084;2023-04-25T06:26:35;7.05;;;3.35;;
37559;SDS011;23398;50.928;7.084;2023-04-25T06:29:01;8.65;;;3.33;;
37559;SDS011;23398;50.928;7.084;2023-04-25T06:31:26;9.35;;;3.75;;
37559;SDS011;23398;50.928;7.084;2023-04-25T06:33:53;10.52;;;3.75;;
37559;SDS011;23398;50.928;7.084;2023-04-25T06:36:20;8.73;;;3.05;;
37559;SDS011;23398;50.928;7.084;2023-04-25T06:38:50;7.65;;;3.20;;
37559;SDS011;23398;50.928;7.084;2023-04-25T06:41:16;10.05;;;3.47;;
37559;SDS011;23398;50.928;7.084;2023-04-25T06:43:42;8.32;;;3.50;;
37559;SDS011;23398;50.928;7.084;2023-04-25T06:46:07;8.43;;;3.78;;
37559;SDS011;23398;50.928;7.084;2023-04-25T06:48:33;8.93;;;3.03;;
37559;SDS011;23398;50.928;7.084;2023-04-25T06:50:58;7.75;;;3.35;;
37559;SDS011;23398;50.928;7.084;2023-04-25T06:53:24;9.23;;;3.28;;
37559;SDS011;23398;50.928;7.084;2023-04-25T06:55:50;8.50;;;3.25;;
37559;SDS011;23398;50.928;7.084;2023-04-25T06:58:15;13.70;;;3.22;;
37559;SDS011;23398;50.928;7.084;2023-04-25T07:00:41;7.85;;;3.15;;
37559;SDS011;23398;50.928;7.084;2023-04-25T07:03:07;8.55;;;3.00;;
37559;SDS011;23398;50.928;7.084;2023-04-25T07:05:32;7.28;;;2.80;;
37559;SDS011;23398;50.928;7.084;2023-04-25T07:07:58;5.90;;;2.75;;
37559;SDS011;23398;50.928;7.084;2023-04-25T07:10:23;7.75;;;2.72;;
37559;SDS011;23398;50.928;7.084;2023-04-25T07:12:50;5.47;;;2.63;;
37559;SDS011;23398;50.928;7.084;2023-04-25T07:15:15;8.85;;;2.90;;
37559;SDS011;23398;50.928;7.084;2023-04-25T07:17:41;6.43;;;2.85;;
37559;SDS011;23398;50.928;7.084;2023-04-25T07:20:07;8.60;;;2.78;;
37559;SDS011;23398;50.928;7.084;2023-04-25T07:22:34;6.07;;;2.90;;
37559;SDS011;23398;50.928;7.084;2023-04-25T07:25:00;9.82;;;2.92;;
37559;SDS011;23398;50.928;7.084;2023-04-25T07:27:25;5.28;;;2.42;;
37559;SDS011;23398;50.928;7.084;2023-04-25T07:29:51;7.68;;;2.58;;
37559;SDS011;23398;50.928;7.084;2023-04-25T07:32:16;5.75;;;2.65;;
37559;SDS011;23398;50.928;7.084;2023-04-25T07:34:42;7.80;;;2.38;;
37559;SDS011;23398;50.928;7.084;2023-04-25T07:37:07;7.07;;;2.60;;
37559;SDS011;23398;50.928;7.084;2023-04-25T07:39:33;4.65;;;2.22;;
37559;SDS011;23398;50.928;7.084;2023-04-25T07:41:59;4.72;;;2.10;;
37559;SDS011;23398;50.928;7.084;2023-04-25T07:44:25;8.32;;;2.60;;
37559;SDS011;23398;50.928;7.084;2023-04-25T07:46:51;6.32;;;2.78;;
37559;SDS011;23398;50.928;7.084;2023-04-25T07:49:16;7.32;;;3.78;;
37559;SDS011;23398;50.928;7.084;2023-04-25T07:51:42;5.20;;;2.85;;
37559;SDS011;23398;50.928;7.084;2023-04-25T07:54:13;6.88;;;2.25;;
37559;SDS011;23398;50.928;7.084;2023-04-25T07:56:39;4.38;;;2.25;;
37559;SDS011;23398;50.928;7.084;2023-04-25T07:59:05;6.05;;;2.33;;
37559;SDS011;23398;50.928;7.084;2023-04-25T08:01:31;5.07;;;2.22;;
37559;SDS011;23398;50.928;7.084;2023-04-25T08:03:56;6.95;;;2.30;;
37559;SDS011;23398;50.928;7.084;2023-04-25T08:06:22;7.68;;;2.22;;
37559;SDS011;23398;50.928;7.084;2023-04-25T08:08:47;7.60;;;2.50;;
37559;SDS011;23398;50.928;7.084;2023-04-25T08:11:13;5.82;;;2.38;;
37559;SDS011;23398;50.928;7.084;2023-04-25T08:13:39;9.55;;;2.75;;
37559;SDS011;23398;50.928;7.084;2023-04-25T08:16:04;5.65;;;2.38;;
37559;SDS011;23398;50.928;7.084;2023-04-25T08:18:30;5.00;;;2.60;;
37559;SDS011;23398;50.928;7.084;2023-04-25T08:20:55;4.80;;;2.60;;
37559;SDS011;23398;50.928;7.084;2023-04-25T08:23:21;4.13;;;2.33;;
37559;SDS011;23398;50.928;7.084;2023-04-25T08:25:47;7.90;;;2.75;;
37559;SDS011;23398;50.928;7.084;2023-04-25T08:28:13;3.90;;;2.08;;
37559;SDS011;23398;50.928;7.084;2023-04-25T08:30:40;6.55;;;2.58;;
37559;SDS011;23398;50.928;7.084;2023-04-25T08:33:05;5.18;;;2.38;;
37559;SDS011;23398;50.928;7.084;2023-04-25T08:35:31;3.80;;;2.10;;
37559;SDS011;23398;50.928;7.084;2023-04-25T08:37:58;5.70;;;2.00;;
37559;SDS011;23398;50.928;7.084;2023-04-25T08:40:23;5.75;;;2.35;;
37559;SDS011;23398;50.928;7.084;2023-04-25T08:42:55;5.78;;;2.20;;
37559;SDS011;23398;50.928;7.084;2023-04-25T08:45:22;3.80;;;1.98;;
37559;SDS011;23398;50.928;7.084;2023-04-25T08:47:48;4.30;;;1.85;;
37559;SDS011;23398;50.928;7.084;2023-04-25T08:50:17;4.38;;;1.70;;
37559;SDS011;23398;50.928;7.084;2023-04-25T08:52:44;3.72;;;1.90;;
37559;SDS011;23398;50.928;7.084;2023-04-25T08:55:13;9.18;;;3.38;;
37559;SDS011;23398;50.928;7.084;2023-04-25T08:57:40;6.07;;;2.50;;
37559;SDS011;23398;50.928;7.084;2023-04-25T09:00:07;5.78;;;2.25;;
37559;SDS011;23398;50.928;7.084;2023-04-25T09:02:34;4.45;;;1.88;;
37559;SDS011;23398;50.928;7.084;2023-04-25T09:05:00;5.85;;;1.80;;
37559;SDS011;23398;50.928;7.084;2023-04-25T09:07:29;4.47;;;1.75;;
37559;SDS011;23398;50.928;7.084;2023-04-25T09:09:55;4.63;;;1.88;;
37559;SDS011;23398;50.928;7.084;2023-04-25T09:12:20;3.35;;;1.52;;
37559;SDS011;23398;50.928;7.084;2023-04-25T09:17:29;3.60;;;1.65;;
37559;SDS011;23398;50.928;7.084;2023-04-25T09:19:54;4.30;;;1.70;;
37559;SDS011;23398;50.928;7.084;2023-04-25T09:22:30;6.32;;;2.70;;
37559;SDS011;23398;50.928;7.084;2023-04-25T09:24:55;8.63;;;2.67;;
37559;SDS011;23398;50.928;7.084;2023-04-25T09:27:21;6.07;;;2.10;;
37559;SDS011;23398;50.928;7.084;2023-04-25T09:29:48;2.72;;;1.70;;
37559;SDS011;23398;50.928;7.084;2023-04-25T09:32:21;4.78;;;1.83;;
37559;SDS011;23398;50.928;7.084;2023-04-25T09:34:49;6.22;;;2.00;;
37559;SDS011;23398;50.928;7.084;2023-04-25T09:37:17;5.07;;;1.83;;
37559;SDS011;23398;50.928;7.084;2023-04-25T09:39:47;5.60;;;1.90;;
37559;SDS011;23398;50.928;7.084;2023-04-25T09:42:15;7.13;;;1.90;;
37559;SDS011;23398;50.928;7.084;2023-04-25T09:44:42;3.83;;;1.90;;
37559;SDS011;23398;50.928;7.084;2023-04-25T09:47:09;8.23;;;2.05;;
37559;SDS011;23398;50.928;7.084;2023-04-25T09:49:38;6.85;;;1.95;;
37559;SDS011;23398;50.928;7.084;2023-04-25T09:52:06;7.18;;;2.50;;
37559;SDS011;23398;50.928;7.084;2023-04-25T09:54:31;5.10;;;2.13;;
37559;SDS011;23398;50.928;7.084;2023-04-25T09:56:57;5.38;;;1.85;;
37559;SDS011;23398;50.928;7.084;2023-04-25T09:59:35;6.65;;;2.00;;
37559;SDS011;23398;50.928;7.084;2023-04-25T10:02:04;3.88;;;1.70;;
37559;SDS011;23398;50.928;7.084;2023-04-25T10:04:33;5.70;;;1.90;;
37559;SDS011;23398;50.928;7.084;2023-04-25T10:07:01;6.47;;;1.92;;
37559;SDS011;23398;50.928;7.084;2023-04-25T10:09:30;4.60;;;1.75;;
37559;SDS011;23398;50.928;7.084;2023-04-25T10:11:58;4.15;;;1.60;;
37559;SDS011;23398;50.928;7.084;2023-04-25T10:14:25;4.47;;;1.35;;
37559;SDS011;23398;50.928;7.084;2023-04-25T10:16:51;5.10;;;1.70;;
37559;SDS011;23398;50.928;7.084;2023-04-25T10:19:20;3.40;;;1.55;;
37559;SDS011;23398;50.928;7.084;2023-04-25T10:21:50;5.20;;;1.77;;
37559;SDS011;23398;50.928;7.084;2023-04-25T10:24:19;3.92;;;1.80;;
37559;SDS011;23398;50.928;7.084;2023-04-25T10:26:46;3.65;;;1.60;;
37559;SDS011;23398;50.928;7.084;2023-04-25T10:29:12;4.63;;;1.50;;
37559;SDS011;23398;50.928;7.084;2023-04-25T10:31:49;4.13;;;1.83;;
37559;SDS011;23398;50.928;7.084;2023-04-25T10:34:15;3.40;;;1.70;;
37559;SDS011;23398;50.928;7.084;2023-04-25T10:36:41;5.50;;;2.45;;
37559;SDS011;23398;50.928;7.084;2023-04-25T10:39:07;4.28;;;2.03;;
37559;SDS011;23398;50.928;7.084;2023-04-25T10:41:45;3.42;;;1.90;;
37559;SDS011;23398;50.928;7.084;2023-04-25T10:44:13;4.35;;;1.85;;
37559;SDS011;23398;50.928;7.084;2023-04-25T10:46:39;4.47;;;1.70;;
37559;SDS011;23398;50.928;7.084;2023-04-25T10:49:05;4.00;;;1.55;;
37559;SDS011;23398;50.928;7.084;2023-04-25T10:51:36;5.22;;;1.63;;
37559;SDS011;23398;50.928;7.084;2023-04-25T10:54:02;3.80;;;1.75;;
37559;SDS011;23398;50.928;7.084;2023-04-25T10:56:31;4.78;;;1.50;;
37559;SDS011;23398;50.928;7.084;2023-04-25T11:01:41;3.28;;;1.35;;
37559;SDS011;23398;50.928;7.084;2023-04-25T11:09:57;5.32;;;1.80;;
37559;SDS011;23398;50.928;7.084;2023-04-25T11:12:27;3.28;;;1.30;;
37559;SDS011;23398;50.928;7.084;2023-04-25T11:15:00;3.58;;;1.52;;
37559;SDS011;23398;50.928;7.084;2023-04-25T11:17:29;7.80;;;3.27;;
37559;SDS011;23398;50.928;7.084;2023-04-25T11:19:55;7.18;;;3.13;;
37559;SDS011;23398;50.928;7.084;2023-04-25T11:22:21;6.65;;;3.47;;
37559;SDS011;23398;50.928;7.084;2023-04-25T11:24:47;6.75;;;2.10;;
37559;SDS011;23398;50.928;7.084;2023-04-25T11:27:13;3.45;;;1.70;;
37559;SDS011;23398;50.928;7.084;2023-04-25T11:29:39;4.80;;;1.80;;
37559;SDS011;23398;50.928;7.084;2023-04-25T11:32:05;2.65;;;1.42;;
37559;SDS011;23398;50.928;7.084;2023-04-25T11:34:31;3.42;;;1.60;;
37559;SDS011;23398;50.928;7.084;2023-04-25T11:36:58;3.70;;;1.50;;
37559;SDS011;23398;50.928;7.084;2023-04-25T11:39:25;2.40;;;1.13;;
37559;SDS011;23398;50.928;7.084;2023-04-25T11:41:51;2.72;;;1.40;;
37559;SDS011;23398;50.928;7.084;2023-04-25T11:44:18;2.58;;;1.40;;
37559;SDS011;23398;50.928;7.084;2023-04-25T11:46:44;2.63;;;1.30;;
37559;SDS011;23398;50.928;7.084;2023-04-25T11:49:10;3.22;;;1.20;;
37559;SDS011;23398;50.928;7.084;2023-04-25T11:51:39;3.85;;;1.42;;
37559;SDS011;23398;50.928;7.084;2023-04-25T11:54:08;2.65;;;1.20;;
37559;SDS011;23398;50.928;7.084;2023-04-25T11:56:35;2.40;;;1.33;;
37559;SDS011;23398;50.928;7.084;2023-04-25T11:59:02;3.25;;;1.35;;
37559;SDS011;23398;50.928;7.084;2023-04-25T12:01:29;3.55;;;1.20;;
37559;SDS011;23398;50.928;7.084;2023-04-25T12:06:40;3.03;;;1.35;;
37559;SDS011;23398;50.928;7.084;2023-04-25T12:09:07;3.67;;;1.17;;
37559;SDS011;23398;50.928;7.084;2023-04-25T12:11:45;2.63;;;1.40;;
37559;SDS011;23398;50.928;7.084;2023-04-25T12:14:20;5.38;;;1.83;;
37559;SDS011;23398;50.928;7.084;2023-04-25T12:16:48;4.13;;;2.00;;
37559;SDS011;23398;50.928;7.084;2023-04-25T12:19:15;3.22;;;1.33;;
37559;SDS011;23398;50.928;7.084;2023-04-25T12:21:42;3.55;;;1.50;;
37559;SDS011;23398;50.928;7.084;2023-04-25T12:24:12;2.92;;;1.67;;
37559;SDS011;23398;50.928;7.084;2023-04-25T12:29:24;2.45;;;1.30;;
37559;SDS011;23398;50.928;7.084;2023-04-25T12:31:51;4.07;;;1.30;;
37559;SDS011;23398;50.928;7.084;2023-04-25T12:34:18;2.95;;;1.58;;
37559;SDS011;23398;50.928;7.084;2023-04-25T12:36:44;2.78;;;1.20;;
37559;SDS011;23398;50.928;7.084;2023-04-25T12:39:14;5.97;;;1.23;;
37559;SDS011;23398;50.928;7.084;2023-04-25T12:41:44;3.78;;;1.45;;
37559;SDS011;23398;50.928;7.084;2023-04-25T12:44:11;1.98;;;1.15;;
37559;SDS011;23398;50.928;7.084;2023-04-25T12:46:37;2.38;;;1.10;;
37559;SDS011;23398;50.928;7.084;2023-04-25T12:49:04;2.78;;;1.20;;
37559;SDS011;23398;50.928;7.084;2023-04-25T12:51:32;3.00;;;1.42;;
37559;SDS011;23398;50.928;7.084;2023-04-25T12:53:58;2.65;;;1.30;;
37559;SDS011;23398;50.928;7.084;2023-04-25T12:56:27;4.70;;;1.17;;
37559;SDS011;23398;50.928;7.084;2023-04-25T12:58:53;12.88;;;1.55;;
37559;SDS011;23398;50.928;7.084;2023-04-25T13:01:20;3.85;;;1.42;;
37559;SDS011;23398;50.928;7.084;2023-04-25T13:03:46;3.80;;;1.50;;
37559;SDS011;23398;50.928;7.084;2023-04-25T13:06:13;2.78;;;1.15;;
37559;SDS011;23398;50.928;7.084;2023-04-25T13:08:38;3.00;;;1.42;;
37559;SDS011;23398;50.928;7.084;2023-04-25T13:11:05;3.80;;;1.38;;
37559;SDS011;23398;50.928;7.084;2023-04-25T13:13:31;3.05;;;1.60;;
37559;SDS011;23398;50.928;7.084;2023-04-25T13:15:57;2.95;;;1.52;;
37559;SDS011;23398;50.928;7.084;2023-04-25T13:18:23;2.92;;;1.40;;
37559;SDS011;23398;50.928;7.084;2023-04-25T13:20:52;2.80;;;1.25;;
37559;SDS011;23398;50.928;7.084;2023-04-25T13:23:18;3.13;;;1.30;;
37559;SDS011;23398;50.928;7.084;2023-04-25T13:25:45;3.03;;;1.15;;
37559;SDS011;23398;50.928;7.084;2023-04-25T13:28:10;3.72;;;1.90;;
37559;SDS011;23398;50.928;7.084;2023-04-25T13:30:36;2.83;;;1.38;;
37559;SDS011;23398;50.928;7.084;2023-04-25T13:33:02;2.55;;;1.30;;
37559;SDS011;23398;50.928;7.084;2023-04-25T13:35:28;3.20;;;1.30;;
37559;SDS011;23398;50.928;7.084;2023-04-25T13:37:55;2.95;;;1.30;;
37559;SDS011;23398;50.928;7.084;2023-04-25T13:40:21;2.13;;;1.10;;
37559;SDS011;23398;50.928;7.084;2023-04-25T13:42:47;2.92;;;1.30;;
37559;SDS011;23398;50.928;7.084;2023-04-25T13:45:12;3.67;;;1.38;;
37559;SDS011;23398;50.928;7.084;2023-04-25T13:47:38;2.50;;;1.17;;
37559;SDS011;23398;50.928;7.084;2023-04-25T13:50:04;2.28;;;1.30;;
37559;SDS011;23398;50.928;7.084;2023-04-25T13:52:33;1.63;;;1.00;;
37559;SDS011;23398;50.928;7.084;2023-04-25T13:55:00;2.13;;;1.20;;
37559;SDS011;23398;50.928;7.084;2023-04-25T13:57:27;2.63;;;1.13;;
37559;SDS011;23398;50.928;7.084;2023-04-25T13:59:53;2.17;;;1.15;;
37559;SDS011;23398;50.928;7.084;2023-04-25T14:02:19;2.33;;;1.30;;
37559;SDS011;23398;50.928;7.084;2023-04-25T14:04:44;2.88;;;1.45;;
37559;SDS011;23398;50.928;7.084;2023-04-25T14:07:10;4.43;;;1.77;;
37559;SDS011;23398;50.928;7.084;2023-04-25T14:09:36;2.72;;;1.17;;
37559;SDS011;23398;50.928;7.084;2023-04-25T14:12:02;3.95;;;1.40;;
37559;SDS011;23398;50.928;7.084;2023-04-25T14:14:28;3.45;;;1.42;;
37559;SDS011;23398;50.928;7.084;2023-04-25T14:16:53;3.55;;;1.60;;
37559;SDS011;23398;50.928;7.084;2023-04-25T14:19:19;3.53;;;1.48;;
37559;SDS011;23398;50.928;7.084;2023-04-25T14:21:46;3.53;;;1.65;;
37559;SDS011;23398;50.928;7.084;2023-04-25T14:24:11;3.42;;;1.52;;
37559;SDS011;23398;50.928;7.084;2023-04-25T14:26:38;2.90;;;1.45;;
37559;SDS011;23398;50.928;7.084;2023-04-25T14:29:04;2.58;;;1.67;;
37559;SDS011;23398;50.928;7.084;2023-04-25T14:31:33;2.17;;;1.45;;
37559;SDS011;23398;50.928;7.084;2023-04-25T14:34:00;2.78;;;1.38;;
37559;SDS011;23398;50.928;7.084;2023-04-25T14:36:27;3.60;;;1.80;;
37559;SDS011;23398;50.928;7.084;2023-04-25T14:38:53;2.60;;;1.40;;
37559;SDS011;23398;50.928;7.084;2023-04-25T14:41:19;2.78;;;1.50;;
37559;SDS011;23398;50.928;7.084;2023-04-25T14:43:46;2.38;;;1.50;;
37559;SDS011;23398;50.928;7.084;2023-04-25T14:46:11;5.75;;;1.55;;
37559;SDS011;23398;50.928;7.084;2023-04-25T14:48:37;3.00;;;1.50;;
37559;SDS011;23398;50.928;7.084;2023-04-25T14:51:03;3.08;;;1.48;;
37559;SDS011;23398;50.928;7.084;2023-04-25T14:53:30;1.90;;;1.35;;
37559;SDS011;23398;50.928;7.084;2023-04-25T14:55:56;2.33;;;1.13;;
37559;SDS011;23398;50.928;7.084;2023-04-25T14:58:22;1.48;;;1.05;;
37559;SDS011;23398;50.928;7.084;2023-04-25T15:00:47;2.20;;;0.93;;